Time;durP1;ratioP1;P1;durP2;ratioP2;P2;SDS_P1;SDS_P2;PMS_P1;PMS_P2;Temp;Humidity;BMP_temperature;BMP_pressure;BME280_temperature;BME280_humidity;BME280_pressure;Samples;Min_cycle;Max_cycle;Signal;HPM_P1;HPM_P2
2022/01/03 00:01:43;;;;;;;7.30;4.12;;;;;;;8.13;71.61;99513.84;5338661;26;33135;-89
2022/01/03 00:04:15;;;;;;;8.18;5.25;;;;;;;8.06;71.70;99503.56;5335439;26;34282;-89
2022/01/03 00:06:45;;;;;;;5.95;4.15;;;;;;;8.17;71.10;99501.78;5318449;26;33052;-89
2022/01/03 00:09:14;;;;;;;11.07;4.65;;;;;;;8.15;71.00;99500.06;5317641;26;34236;-89
2022/01/03 00:11:48;;;;;;;8.73;4.87;;;;;;;8.08;70.37;99505.25;5338534;26;33086;-91
2022/01/03 00:14:17;;;;;;;6.68;4.45;;;;;;;8.00;70.65;99507.03;5345156;26;34455;-90
2022/01/03 00:16:46;;;;;;;8.52;4.60;;;;;;;7.84;71.64;99500.22;5338399;26;32641;-89
2022/01/03 00:19:16;;;;;;;6.85;4.10;;;;;;;7.87;71.24;99498.47;5319085;26;34400;-89
2022/01/03 00:21:46;;;;;;;9.93;6.30;;;;;;;7.92;71.01;99503.63;5337477;26;32216;-92
2022/01/03 00:24:25;;;;;;;7.15;3.85;;;;;;;7.99;70.73;99494.12;5337319;26;33560;-89
2022/01/03 00:26:57;;;;;;;6.75;4.00;;;;;;;7.95;70.58;99503.63;5342972;26;33316;-90
2022/01/03 00:29:29;;;;;;;6.55;4.22;;;;;;;7.79;71.22;99496.81;5321075;26;34834;-90
2022/01/03 00:31:58;;;;;;;9.52;5.47;;;;;;;7.87;70.69;99497.63;5338644;26;32893;-89
2022/01/03 00:34:29;;;;;;;6.72;4.10;;;;;;;7.89;70.54;99483.00;5338051;26;34703;-89
2022/01/03 00:37:01;;;;;;;7.45;5.07;;;;;;;7.72;70.83;99487.38;5338334;26;34802;-89
2022/01/03 00:39:32;;;;;;;6.28;4.40;;;;;;;7.74;70.76;99485.66;5317553;26;31547;-90
2022/01/03 00:42:02;;;;;;;7.70;5.15;;;;;;;7.81;70.14;99483.03;5345062;26;34076;-89
2022/01/03 00:44:31;;;;;;;8.40;5.65;;;;;;;7.86;69.81;99475.25;5338194;26;33797;-89
2022/01/03 00:47:00;;;;;;;8.38;4.95;;;;;;;7.78;70.19;99483.06;5338122;26;34894;-89
2022/01/03 00:49:33;;;;;;;8.85;4.53;;;;;;;7.59;70.69;99479.69;5337922;26;34490;-89
2022/01/03 00:52:02;;;;;;;6.90;4.18;;;;;;;7.52;71.02;99488.34;5318732;26;35030;-89
2022/01/03 00:54:32;;;;;;;6.12;4.07;;;;;;;7.70;70.51;99488.25;5344830;26;35774;-89
2022/01/03 00:57:05;;;;;;;8.27;4.32;;;;;;;7.77;70.27;99485.63;5319899;26;35989;-89
2022/01/03 00:59:42;;;;;;;6.62;3.78;;;;;;;7.84;70.49;99495.06;5338288;26;34586;-89
2022/01/03 01:02:12;;;;;;;8.13;4.57;;;;;;;7.88;69.83;99489.03;5317469;26;34771;-89
2022/01/03 01:04:46;;;;;;;8.98;4.87;;;;;;;7.88;69.90;99494.19;5317674;26;32609;-89
2022/01/03 01:07:17;;;;;;;6.50;3.70;;;;;;;7.96;70.18;99491.56;5318212;26;34770;-90
2022/01/03 01:09:51;;;;;;;5.12;3.40;;;;;;;7.71;71.30;99483.97;5324732;26;33353;-89
2022/01/03 01:12:21;;;;;;;7.87;4.78;;;;;;;7.64;71.23;99488.28;5318220;26;34032;-90
2022/01/03 01:14:51;;;;;;;7.53;4.62;;;;;;;7.60;71.31;99489.16;5317278;26;35174;-89
2022/01/03 01:17:20;;;;;;;6.00;3.12;;;;;;;7.68;70.98;99476.19;5337888;26;33576;-90
2022/01/03 01:19:50;;;;;;;8.05;4.32;;;;;;;7.96;70.05;99487.25;5317858;26;34749;-89
2022/01/03 01:22:20;;;;;;;6.72;4.60;;;;;;;7.65;70.66;99491.72;5317922;26;34341;-90
2022/01/03 01:25:09;;;;;;;6.40;3.55;;;;;;;7.96;69.42;99476.91;5324281;26;35375;-90
2022/01/03 01:27:47;;;;;;;7.35;3.78;;;;;;;7.50;70.84;99484.03;5318196;26;34197;-89
2022/01/03 01:30:17;;;;;;;6.78;3.90;;;;;;;7.78;69.64;99480.47;5338314;26;33810;-91
2022/01/03 01:32:49;;;;;;;6.15;4.18;;;;;;;7.51;70.81;99470.25;5338447;26;33452;-90
2022/01/03 01:35:21;;;;;;;6.95;4.15;;;;;;;7.19;71.87;99472.09;5318300;26;33817;-89
2022/01/03 01:37:51;;;;;;;;;;;;;;;7.39;71.21;99471.16;5338627;26;33546;-90
2022/01/03 01:40:20;;;;;;;5.45;3.80;;;;;;;7.52;70.76;99461.66;5344530;26;34205;-91
2022/01/03 01:42:49;;;;;;;8.48;5.45;;;;;;;7.48;70.20;99464.25;5338441;26;33412;-90
2022/01/03 01:45:20;;;;;;;6.47;3.70;;;;;;;7.37;70.56;99457.41;5337984;26;33622;-89
2022/01/03 01:47:49;;;;;;;6.93;3.80;;;;;;;7.50;70.11;99453.06;5338506;26;33943;-90
2022/01/03 01:50:21;;;;;;;4.85;3.78;;;;;;;7.35;70.32;99448.84;5318346;26;34769;-89
2022/01/03 01:52:51;;;;;;;7.47;4.53;;;;;;;7.34;69.92;99447.09;5324602;26;34924;-90
2022/01/03 01:55:20;;;;;;;10.13;5.18;;;;;;;7.44;69.34;99443.63;5342744;26;34685;-90
2022/01/03 01:57:56;;;;;;;7.30;3.72;;;;;;;7.37;69.33;99439.34;5337860;26;33954;-90
2022/01/03 02:00:27;;;;;;;6.53;3.22;;;;;;;7.59;70.04;99446.16;5317787;26;32639;-89
2022/01/03 02:03:07;;;;;;;6.35;4.50;;;;;;;7.36;71.02;99450.53;5338325;26;32590;-90
2022/01/03 02:05:41;;;;;;;8.23;3.97;;;;;;;7.38;71.33;99449.66;5317651;26;34545;-90
2022/01/03 02:08:16;;;;;;;8.57;4.75;;;;;;;7.60;70.62;99445.25;5324574;26;34206;-91
2022/01/03 02:10:49;;;;;;;7.25;4.35;;;;;;;7.34;71.67;99457.44;5324212;26;33950;-90
2022/01/03 02:13:22;;;;;;;8.98;4.70;;;;;;;7.43;71.47;99453.09;5317970;26;35076;-90
2022/01/03 02:15:58;;;;;;;6.22;4.28;;;;;;;7.28;72.20;99445.41;5337336;26;33955;-89
2022/01/03 02:18:28;;;;;;;8.95;4.50;;;;;;;7.48;71.60;99442.75;5318048;26;34889;-89
2022/01/03 02:20:59;;;;;;;6.90;4.28;;;;;;;7.30;72.11;99447.97;5317667;26;33641;-90
2022/01/03 02:23:28;;;;;;;7.28;4.22;;;;;;;7.45;71.91;99442.78;5324507;26;31761;-89
2022/01/03 02:25:57;;;;;;;7.10;4.20;;;;;;;7.76;70.80;99434.88;5317980;26;34109;-90
2022/01/03 02:28:25;;;;;;;5.93;3.37;;;;;;;7.76;70.94;99429.72;5339036;26;33498;-90
2022/01/03 02:30:55;;;;;;;6.37;3.62;;;;;;;7.72;71.27;99422.84;5341034;26;34187;-89
2022/01/03 02:33:23;;;;;;;5.03;3.30;;;;;;;7.83;70.89;99427.06;5338959;26;34179;-90
2022/01/03 02:35:53;;;;;;;5.40;3.35;;;;;;;7.77;71.42;99426.25;5318787;26;35217;-90
2022/01/03 02:38:24;;;;;;;5.18;2.72;;;;;;;7.81;71.44;99425.38;5345435;26;35713;-90
2022/01/03 02:40:53;;;;;;;4.37;3.08;;;;;;;8.24;69.92;99419.88;5337854;26;33957;-90
2022/01/03 02:43:24;;;;;;;4.72;3.03;;;;;;;8.46;68.75;99428.38;5319071;26;34447;-91
2022/01/03 02:45:53;;;;;;;4.03;2.80;;;;;;;8.78;66.21;99414.25;5338738;26;34904;-89
2022/01/03 02:48:22;;;;;;;5.53;3.22;;;;;;;9.18;63.70;99418.12;5318692;26;32680;-90
2022/01/03 02:50:52;;;;;;;5.28;2.67;;;;;;;9.31;63.22;99411.06;5344976;26;33909;-89
2022/01/03 02:53:21;;;;;;;5.10;3.15;;;;;;;9.19;63.75;99416.38;5338649;26;33469;-89
2022/01/03 02:55:51;;;;;;;4.37;2.78;;;;;;;9.22;64.52;99437.03;5338250;26;33573;-89
2022/01/03 02:58:20;;;;;;;7.20;4.27;;;;;;;8.91;66.03;99433.94;5338298;26;34961;-91
2022/01/03 03:00:51;;;;;;;7.43;4.20;;;;;;;7.76;69.22;99419.38;5337979;26;34123;-89
2022/01/03 03:03:21;;;;;;;7.15;3.80;;;;;;;8.35;66.63;99443.91;5345492;26;33598;-90
2022/01/03 03:05:51;;;;;;;5.87;3.62;;;;;;;8.33;65.44;99432.72;5340431;26;34064;-90
2022/01/03 03:08:21;;;;;;;8.82;4.45;;;;;;;8.28;65.54;99450.00;5318918;26;33111;-90
2022/01/03 03:10:51;;;;;;;7.18;3.92;;;;;;;8.26;65.92;99450.03;5338625;26;33607;-90
2022/01/03 03:13:20;;;;;;;5.75;3.58;;;;;;;8.04;67.32;99438.97;5318818;26;33171;-90
2022/01/03 03:15:49;;;;;;;5.30;2.92;;;;;;;8.46;65.87;99436.97;5337318;26;34595;-90
2022/01/03 03:18:19;;;;;;;7.00;3.85;;;;;;;8.63;65.76;99441.12;5345245;26;34601;-90
2022/01/03 03:20:48;;;;;;;5.18;3.15;;;;;;;8.75;65.33;99428.94;5318114;26;33793;-91
2022/01/03 03:23:16;;;;;;;7.43;3.33;;;;;;;8.62;66.19;99416.13;5337960;26;33507;-90
2022/01/03 03:25:45;;;;;;;4.60;3.30;;;;;;;8.96;64.49;99422.69;5318323;26;34095;-89
2022/01/03 03:28:16;;;;;;;3.03;2.20;;;;;;;8.96;64.52;99414.94;5338786;26;33652;-90
2022/01/03 03:30:47;;;;;;;3.97;2.55;;;;;;;9.03;64.48;99418.28;5324715;26;33943;-89
2022/01/03 03:33:18;;;;;;;5.72;3.58;;;;;;;9.05;64.88;99418.28;5318824;26;33910;-89
2022/01/03 03:35:50;;;;;;;7.22;3.85;;;;;;;9.13;64.85;99427.69;5339585;26;33930;-90
2022/01/03 03:38:23;;;;;;;5.85;2.97;;;;;;;8.91;65.89;99419.28;5318458;26;33189;-91
2022/01/03 03:40:54;;;;;;;4.15;2.78;;;;;;;9.09;65.49;99435.50;5339152;26;34521;-90
2022/01/03 03:43:25;;;;;;;4.37;2.65;;;;;;;9.25;64.06;99425.78;5338502;26;33497;-90
2022/01/03 03:45:54;;;;;;;6.15;2.97;;;;;;;9.02;65.10;99434.69;5324798;26;34886;-90
2022/01/03 03:48:23;;;;;;;5.62;3.58;;;;;;;9.06;64.90;99425.16;5318550;26;34712;-89
2022/01/03 03:50:52;;;;;;;5.62;3.20;;;;;;;9.13;64.82;99426.78;5318172;26;34865;-92
2022/01/03 03:53:21;;;;;;;5.32;3.40;;;;;;;9.18;64.94;99430.19;5338904;26;34309;-90
2022/01/03 03:55:50;;;;;;;6.10;2.75;;;;;;;9.29;64.50;99428.34;5338661;26;33938;-90
2022/01/03 03:58:19;;;;;;;5.28;3.35;;;;;;;9.38;63.98;99433.41;5344994;26;34909;-89
2022/01/03 04:00:49;;;;;;;6.87;3.58;;;;;;;9.28;64.36;99421.47;5317985;26;33388;-90
2022/01/03 04:03:37;;;;;;;5.05;3.17;;;;;;;9.26;64.66;99401.66;5339380;26;33297;-90
2022/01/03 04:06:06;;;;;;;6.70;3.50;;;;;;;9.51;63.74;99454.81;5338338;26;34536;-89
2022/01/03 04:08:35;;;;;;;5.28;3.25;;;;;;;9.15;64.88;99433.66;5318400;26;31614;-90
2022/01/03 04:11:04;;;;;;;6.43;3.67;;;;;;;8.96;65.89;99402.00;5338405;26;33891;-89
2022/01/03 04:13:33;;;;;;;7.25;4.43;;;;;;;9.26;64.56;99448.22;5345168;26;33922;-90
2022/01/03 04:16:04;;;;;;;5.10;4.07;;;;;;;9.25;64.66;99429.22;5337850;26;33832;-89
2022/01/03 04:18:33;;;;;;;5.22;3.20;;;;;;;9.25;64.58;99420.63;5318728;26;33535;-90
2022/01/03 04:21:01;;;;;;;8.65;5.53;;;;;;;9.40;64.10;99413.53;5338189;26;34491;-89
2022/01/03 04:23:30;;;;;;;6.15;3.90;;;;;;;9.29;64.51;99446.44;5338492;26;33375;-89
2022/01/03 04:25:59;;;;;;;8.23;4.12;;;;;;;9.25;64.85;99428.38;5345071;26;33823;-90
2022/01/03 04:28:28;;;;;;;7.12;4.22;;;;;;;9.17;65.25;99431.06;5338053;26;34077;-91
2022/01/03 04:30:58;;;;;;;6.72;4.43;;;;;;;9.41;64.37;99432.50;5318096;26;34539;-90
2022/01/03 04:33:28;;;;;;;6.40;3.75;;;;;;;9.24;65.15;99427.53;5318549;26;33454;-89
2022/01/03 04:35:57;;;;;;;6.07;3.45;;;;;;;9.54;64.13;99443.56;5318594;26;35230;-89
2022/01/03 04:38:26;;;;;;;7.22;2.92;;;;;;;9.31;64.54;99442.13;5344822;26;33731;-89
2022/01/03 04:40:55;;;;;;;5.75;3.50;;;;;;;9.79;62.66;99441.50;5339931;26;34991;-90
2022/01/03 04:43:24;;;;;;;5.28;3.47;;;;;;;9.76;62.57;99439.81;5337916;26;33943;-90
2022/01/03 04:45:54;;;;;;;7.18;3.92;;;;;;;9.53;63.44;99439.25;5338303;26;33005;-89
2022/01/03 04:48:24;;;;;;;6.30;3.60;;;;;;;9.52;63.29;99427.19;5318363;26;34945;-92
2022/01/03 04:50:54;;;;;;;4.43;3.20;;;;;;;9.60;63.18;99430.53;5337553;26;34077;-90
2022/01/03 04:53:25;;;;;;;6.20;3.42;;;;;;;9.72;63.07;99430.37;5324253;26;33627;-90
2022/01/03 04:55:55;;;;;;;8.25;3.78;;;;;;;9.59;63.54;99416.75;5338772;26;33884;-90
2022/01/03 04:58:23;;;;;;;4.85;3.10;;;;;;;9.94;62.45;99432.66;5338015;26;34152;-90
2022/01/03 05:00:52;;;;;;;8.45;4.28;;;;;;;9.69;63.16;99430.41;5341571;26;34501;-90
2022/01/03 05:03:21;;;;;;;6.40;3.22;;;;;;;9.69;63.28;99437.31;5318259;26;34213;-89
2022/01/03 05:05:50;;;;;;;6.15;3.65;;;;;;;9.38;64.35;99423.03;5344794;26;33416;-90
2022/01/03 05:08:20;;;;;;;10.65;4.43;;;;;;;9.58;63.90;99429.69;5337755;26;33930;-89
2022/01/03 05:10:53;;;;;;;7.75;4.62;;;;;;;9.59;63.77;99426.22;5338761;26;34499;-89
2022/01/03 05:13:21;;;;;;;7.18;3.62;;;;;;;9.48;64.19;99410.00;5338335;26;33560;-89
2022/01/03 05:15:50;;;;;;;8.30;3.67;;;;;;;9.38;64.54;99411.84;5318130;26;33840;-90
2022/01/03 05:18:20;;;;;;;7.35;3.85;;;;;;;9.22;65.02;99412.91;5343959;26;34905;-92
2022/01/03 05:20:53;;;;;;;7.80;4.43;;;;;;;9.24;65.03;99413.75;5344679;26;33867;-90
2022/01/03 05:23:24;;;;;;;9.13;4.00;;;;;;;9.32;64.68;99412.75;5317919;26;32892;-91
2022/01/03 05:25:53;;;;;;;5.35;3.28;;;;;;;9.31;64.82;99403.28;5318890;26;34787;-89
2022/01/03 05:28:22;;;;;;;7.28;3.58;;;;;;;9.37;64.64;99403.22;5338034;26;34653;-90
2022/01/03 05:30:53;;;;;;;6.68;3.70;;;;;;;9.37;64.52;99399.75;5337923;26;33394;-89
2022/01/03 05:33:22;;;;;;;8.05;3.97;;;;;;;9.48;64.25;99390.13;5344594;26;33550;-89
2022/01/03 05:35:51;;;;;;;5.93;3.85;;;;;;;9.48;64.32;99384.94;5338358;26;33834;-91
2022/01/03 05:38:20;;;;;;;8.60;4.28;;;;;;;9.61;63.83;99395.97;5338193;26;33969;-93
2022/01/03 05:40:50;;;;;;;6.62;3.65;;;;;;;9.57;64.02;99387.41;5337286;26;34049;-89
2022/01/03 05:43:19;;;;;;;6.35;3.72;;;;;;;9.95;62.15;99395.50;5338231;26;32798;-89
2022/01/03 05:45:48;;;;;;;5.10;3.08;;;;;;;10.01;61.82;99396.25;5344871;26;33673;-90
2022/01/03 05:48:18;;;;;;;5.50;3.45;;;;;;;9.95;61.76;99387.72;5337650;26;34718;-90
2022/01/03 05:50:47;;;;;;;6.65;3.70;;;;;;;9.83;62.41;99394.81;5338038;26;33964;-90
2022/01/03 05:53:16;;;;;;;7.07;3.95;;;;;;;10.03;61.74;99389.31;5337826;26;34208;-89
2022/01/03 05:55:46;;;;;;;6.72;3.85;;;;;;;9.97;61.53;99385.97;5317839;26;33243;-89
2022/01/03 05:58:17;;;;;;;4.60;3.12;;;;;;;10.12;61.08;99390.87;5321476;26;33809;-91
2022/01/03 06:00:46;;;;;;;4.50;2.95;;;;;;;10.20;60.78;99407.19;5324305;26;33714;-91
2022/01/03 06:03:19;;;;;;;6.68;3.80;;;;;;;10.00;61.52;99396.28;5315607;26;33643;-92
2022/01/03 06:06:17;;;;;;;4.32;2.78;;;;;;;9.98;61.52;99404.09;5315351;26;34092;-89
2022/01/03 06:08:46;;;;;;;5.47;3.05;;;;;;;9.99;61.70;99400.59;5337106;26;34024;-89
2022/01/03 06:11:15;;;;;;;5.47;3.17;;;;;;;10.26;60.62;99401.88;5337599;26;34079;-92
2022/01/03 06:13:47;;;;;;;6.07;3.47;;;;;;;10.43;59.70;99408.56;5337192;26;33501;-89
2022/01/03 06:16:17;;;;;;;6.03;3.05;;;;;;;10.22;60.23;99389.00;5344245;26;34569;-90
2022/01/03 06:18:48;;;;;;;8.20;3.92;;;;;;;10.34;60.07;99403.53;5337876;26;33918;-92
2022/01/03 06:21:20;;;;;;;6.22;3.50;;;;;;;10.23;60.28;99381.22;5337942;26;33078;-89
2022/01/03 06:23:49;;;;;;;6.05;3.85;;;;;;;9.96;61.48;99386.84;5337800;26;33376;-89
2022/01/03 06:26:18;;;;;;;8.57;4.60;;;;;;;9.97;61.29;99391.13;5337800;26;33743;-89
2022/01/03 06:28:49;;;;;;;6.68;4.03;;;;;;;9.91;62.00;99391.25;5323886;26;34376;-89
2022/01/03 06:31:18;;;;;;;5.57;3.62;;;;;;;10.03;61.88;99402.28;5337825;26;34269;-89
2022/01/03 06:33:47;;;;;;;7.65;4.22;;;;;;;9.90;62.52;99412.84;5337522;26;33480;-89
2022/01/03 06:36:16;;;;;;;9.32;4.37;;;;;;;10.07;62.30;99428.97;5337376;26;33471;-90
2022/01/03 06:38:45;;;;;;;8.70;4.85;;;;;;;10.08;61.98;99429.87;5317806;26;34614;-92
2022/01/03 06:41:14;;;;;;;5.03;3.37;;;;;;;10.00;62.18;99425.66;5318705;26;33818;-89
2022/01/03 06:43:43;;;;;;;7.07;3.45;;;;;;;10.27;60.27;99433.88;5343641;26;33413;-89
2022/01/03 06:46:13;;;;;;;5.80;3.62;;;;;;;9.98;61.45;99422.22;5337663;26;34681;-90
2022/01/03 06:48:43;;;;;;;4.82;3.22;;;;;;;10.11;60.52;99425.47;5337576;26;34096;-90
2022/01/03 06:51:12;;;;;;;7.05;3.53;;;;;;;10.29;59.69;99419.16;5338221;26;33644;-89
2022/01/03 06:53:42;;;;;;;5.05;2.62;;;;;;;10.28;59.94;99414.00;5337224;26;33567;-89
2022/01/03 06:56:11;;;;;;;5.25;2.42;;;;;;;10.30;59.88;99407.94;5323538;26;33804;-88
2022/01/03 06:58:42;;;;;;;4.78;2.90;;;;;;;10.32;59.99;99397.53;5317912;26;32321;-88
2022/01/03 07:01:14;;;;;;;4.18;2.65;;;;;;;10.48;59.49;99382.56;5317071;26;32729;-90
2022/01/03 07:03:43;;;;;;;3.90;2.17;;;;;;;10.32;60.08;99379.41;5317313;26;32277;-89
2022/01/03 07:06:12;;;;;;;4.18;1.95;;;;;;;10.32;60.00;99374.22;5317928;26;33187;-89
2022/01/03 07:08:41;;;;;;;2.60;1.92;;;;;;;10.46;59.41;99367.00;5323804;26;33883;-89
2022/01/03 07:11:10;;;;;;;2.03;1.75;;;;;;;10.89;57.79;99366.22;5337478;26;33739;-89
2022/01/03 07:13:46;;;;;;;2.53;1.60;;;;;;;11.14;56.91;99356.22;5336858;26;33632;-88
2022/01/03 07:19:06;;;;;;;1.62;1.35;;;;;;;11.80;55.05;99365.12;5318478;26;33510;-92
2022/01/03 07:21:35;;;;;;;2.35;1.20;;;;;;;12.01;54.04;99368.13;5339065;26;33799;-89
2022/01/03 07:24:05;;;;;;;2.15;1.98;;;;;;;12.28;53.67;99358.81;5325073;26;33550;-89
2022/01/03 07:26:34;;;;;;;1.37;1.23;;;;;;;12.58;51.65;99364.94;5324005;26;35315;-89
2022/01/03 07:29:04;;;;;;;4.10;1.10;;;;;;;12.88;50.44;99385.84;5338722;26;34725;-89
2022/01/03 07:31:34;;;;;;;0.80;0.80;;;;;;;13.09;49.77;99355.75;5318804;26;34443;-89
2022/01/03 07:34:07;;;;;;;0.88;0.80;;;;;;;13.33;48.55;99356.81;5316882;26;34179;-89
2022/01/03 07:36:36;;;;;;;1.17;0.95;;;;;;;13.44;47.52;99346.94;5337540;26;34021;-89
2022/01/03 07:39:05;;;;;;;1.33;1.23;;;;;;;13.56;47.42;99345.72;5323024;26;34723;-88
2022/01/03 07:41:33;;;;;;;0.85;0.80;;;;;;;13.68;46.94;99345.31;5338089;26;33984;-88
2022/01/03 07:44:02;;;;;;;1.87;1.08;;;;;;;13.70;46.16;99345.25;5318096;26;34648;-90
2022/01/03 07:46:31;;;;;;;1.58;0.98;;;;;;;13.71;45.93;99354.81;5317635;26;31959;-88
2022/01/03 07:49:01;;;;;;;0.90;0.90;;;;;;;13.75;46.08;99352.06;5338442;26;34879;-90
2022/01/03 07:51:30;;;;;;;0.90;0.90;;;;;;;13.87;45.61;99353.41;5343845;26;33883;-89
2022/01/03 07:53:59;;;;;;;1.25;0.90;;;;;;;13.92;45.96;99368.87;5336062;26;33185;-88
2022/01/03 07:56:28;;;;;;;0.98;0.80;;;;;;;13.87;45.90;99374.28;5316303;26;32368;-91
2022/01/03 07:58:59;;;;;;;;;;;;;;;13.86;45.95;99377.78;5318776;26;35007;-89
2022/01/03 08:01:27;;;;;;;1.27;1.02;;;;;;;14.09;45.74;99382.25;5337510;26;34511;-89
2022/01/03 08:03:57;;;;;;;1.37;0.82;;;;;;;13.97;45.26;99377.44;5342204;26;33681;-89
2022/01/03 08:06:47;;;;;;;2.80;0.95;;;;;;;13.83;45.53;99390.91;5342359;26;33449;-89
2022/01/03 08:09:16;;;;;;;0.60;0.60;;;;;;;13.93;45.26;99394.09;5340643;26;33206;-88
2022/01/03 08:11:45;;;;;;;1.95;1.15;;;;;;;13.88;45.71;99396.84;5318658;26;31870;-89
2022/01/03 08:14:13;;;;;;;0.85;0.82;;;;;;;14.12;44.90;99408.25;5338580;26;33230;-89
2022/01/03 08:16:42;;;;;;;1.37;0.90;;;;;;;14.09;45.09;99388.31;5338716;26;33905;-89
2022/01/03 08:19:11;;;;;;;0.70;0.70;;;;;;;14.03;45.48;99403.31;5324508;26;34935;-89
2022/01/03 08:21:40;;;;;;;2.05;0.75;;;;;;;13.99;45.40;99413.00;5335710;26;33669;-89
2022/01/03 08:24:10;;;;;;;0.70;0.70;;;;;;;14.04;45.55;99411.09;5338115;26;33383;-89
2022/01/03 08:26:39;;;;;;;2.92;0.95;;;;;;;14.01;45.79;99407.72;5339267;26;33946;-90
2022/01/03 08:29:09;;;;;;;0.70;0.70;;;;;;;13.95;45.64;99408.78;5338028;26;34027;-89
2022/01/03 08:31:38;;;;;;;0.70;0.70;;;;;;;14.06;45.70;99417.13;5339606;26;33843;-89
2022/01/03 08:34:07;;;;;;;3.00;0.95;;;;;;;14.17;45.44;99413.31;5344599;26;33340;-88
2022/01/03 08:36:36;;;;;;;0.95;0.70;;;;;;;13.88;45.99;99402.91;5338259;26;33867;-88
2022/01/03 08:39:05;;;;;;;3.28;1.12;;;;;;;13.98;45.76;99418.25;5338360;26;33901;-89
2022/01/03 08:41:36;;;;;;;0.80;0.70;;;;;;;13.79;46.18;99399.72;5317217;26;32401;-88
2022/01/03 08:44:05;;;;;;;0.70;0.70;;;;;;;13.82;46.18;99410.03;5338214;26;33465;-89
2022/01/03 08:46:36;;;;;;;1.37;0.90;;;;;;;13.69;46.52;99426.97;5344835;26;33917;-88
2022/01/03 08:49:06;;;;;;;0.70;0.70;;;;;;;13.77;46.57;99420.66;5337790;26;33681;-89
2022/01/03 08:51:35;;;;;;;0.77;0.77;;;;;;;13.86;46.76;99428.16;5337777;26;34167;-88
2022/01/03 08:54:04;;;;;;;2.30;0.98;;;;;;;13.94;46.19;99442.72;5338061;26;33633;-88
2022/01/03 08:56:33;;;;;;;2.15;0.98;;;;;;;13.97;46.28;99430.44;5318572;26;34961;-88
2022/01/03 08:59:03;;;;;;;1.58;1.10;;;;;;;13.71;46.75;99453.84;5345048;26;34754;-88
2022/01/03 09:01:32;;;;;;;2.05;0.85;;;;;;;13.61;47.29;99454.13;5338827;26;32928;-89
2022/01/03 09:04:01;;;;;;;0.80;0.80;;;;;;;13.68;47.60;99446.97;5338535;26;33086;-88
2022/01/03 09:06:30;;;;;;;0.80;0.80;;;;;;;13.66;47.66;99447.03;5318794;26;33907;-88
2022/01/03 09:08:59;;;;;;;0.73;0.73;;;;;;;13.53;47.87;99439.59;5338364;26;34026;-89
2022/01/03 09:11:31;;;;;;;0.70;0.70;;;;;;;13.64;47.88;99454.03;5339059;26;33926;-89
2022/01/03 09:14:00;;;;;;;1.00;0.90;;;;;;;13.64;48.02;99434.94;5345211;26;34051;-88
2022/01/03 09:16:30;;;;;;;2.92;1.00;;;;;;;13.68;47.93;99433.94;5318277;26;31922;-88
2022/01/03 09:18:59;;;;;;;0.70;0.70;;;;;;;13.49;47.98;99449.28;5338782;26;33124;-88
2022/01/03 09:21:28;;;;;;;1.35;1.20;;;;;;;13.37;48.01;99475.69;5338004;26;33678;-90
2022/01/03 09:24:19;;;;;;;0.70;0.70;;;;;;;13.41;48.05;99441.69;5318523;26;33100;-88
2022/01/03 09:29:47;;;;;;;0.70;0.70;;;;;;;13.32;47.35;99461.94;5257589;27;33502;-89
2022/01/03 09:32:17;;;;;;;1.67;0.90;;;;;;;13.33;47.21;99448.00;5269295;27;33635;-88
2022/01/03 09:34:45;;;;;;;0.95;0.80;;;;;;;13.27;47.30;99458.56;5269457;27;34282;-88
2022/01/03 09:37:19;;;;;;;1.33;1.08;;;;;;;13.18;47.56;99447.50;5269687;27;34509;-88
2022/01/03 09:39:49;;;;;;;0.70;0.70;;;;;;;13.05;48.21;99440.94;5251283;27;35099;-89
2022/01/03 09:42:22;;;;;;;0.80;0.80;;;;;;;13.27;47.79;99433.41;5269807;27;33579;-89
2022/01/03 09:44:53;;;;;;;0.80;0.80;;;;;;;13.38;47.78;99420.06;5275967;27;34320;-88
2022/01/03 09:47:23;;;;;;;;;;;;;;;13.23;47.70;99414.34;5269963;27;33535;-88
2022/01/03 09:49:52;;;;;;;0.80;0.80;;;;;;;13.21;47.89;99429.16;5269341;27;34051;-89
2022/01/03 09:52:23;;;;;;;2.05;0.80;;;;;;;13.19;47.97;99409.28;5268887;27;33957;-89
2022/01/03 09:54:57;;;;;;;1.85;1.08;;;;;;;12.95;48.63;99416.91;5269562;27;32861;-89
2022/01/03 09:57:26;;;;;;;0.90;0.90;;;;;;;13.26;48.16;99433.41;5275780;27;32955;-88
2022/01/03 09:59:56;;;;;;;0.80;0.80;;;;;;;13.21;48.20;99423.09;5274431;27;33790;-88
2022/01/03 10:02:29;;;;;;;0.70;0.70;;;;;;;13.22;48.14;99406.59;5250322;27;34605;-89
2022/01/03 10:04:59;;;;;;;0.80;0.80;;;;;;;13.27;47.99;99417.78;5328805;26;33363;-88
2022/01/03 10:07:28;;;;;;;2.00;1.10;;;;;;;12.86;49.15;99409.31;5338200;26;33743;-90
2022/01/03 10:09:57;;;;;;;1.75;1.08;;;;;;;13.10;48.83;99410.41;5338062;26;33782;-88
2022/01/03 10:12:26;;;;;;;1.10;0.93;;;;;;;13.17;48.69;99411.09;5324330;26;33874;-88
2022/01/03 10:14:54;;;;;;;1.25;1.15;;;;;;;13.27;48.78;99402.16;5337180;26;33195;-88
2022/01/03 10:17:23;;;;;;;1.70;0.82;;;;;;;13.22;48.75;99396.19;5337520;26;33926;-88
2022/01/03 10:19:58;;;;;;;0.90;0.85;;;;;;;12.96;49.65;99404.72;5336704;26;33641;-90
2022/01/03 10:22:29;;;;;;;1.30;0.80;;;;;;;13.17;49.31;99398.06;5337229;26;34018;-87
2022/01/03 10:25:00;;;;;;;1.00;0.80;;;;;;;13.23;49.12;99396.12;5324541;26;33703;-89
2022/01/03 10:27:46;;;;;;;0.82;0.82;;;;;;;13.22;49.28;99384.00;5317476;26;35246;-88
2022/01/03 10:30:29;;;;;;;0.73;0.73;;;;;;;13.17;49.40;99379.84;5337569;26;33623;-91
2022/01/03 10:32:58;;;;;;;1.73;1.00;;;;;;;12.70;50.57;99369.81;5337314;26;33670;-88
2022/01/03 10:35:29;;;;;;;0.80;0.80;;;;;;;12.94;50.07;99350.06;5336610;26;34113;-88
2022/01/03 10:37:57;;;;;;;0.73;0.73;;;;;;;13.14;49.79;99349.50;5337277;26;32915;-88
2022/01/03 10:40:29;;;;;;;1.45;1.00;;;;;;;13.02;49.89;99350.72;5338889;26;34042;-88
2022/01/03 10:42:59;;;;;;;1.00;0.90;;;;;;;12.96;49.92;99360.47;5344026;26;33686;-88
2022/01/03 10:45:30;;;;;;;1.77;1.05;;;;;;;12.78;50.67;99365.28;5337160;26;33284;-88
2022/01/03 10:47:59;;;;;;;;;;;;;;;12.78;50.87;99364.41;5338009;26;33582;-88
2022/01/03 10:50:29;;;;;;;1.23;0.85;;;;;;;12.97;50.22;99356.94;5338412;26;34737;-91
2022/01/03 10:53:05;;;;;;;1.67;1.00;;;;;;;13.18;49.95;99360.69;5338617;26;34480;-88
2022/01/03 10:55:34;;;;;;;0.95;0.80;;;;;;;12.91;50.41;99367.53;5324398;26;34757;-89
2022/01/03 10:58:04;;;;;;;0.90;0.90;;;;;;;12.97;50.80;99364.75;5318664;26;33906;-88
2022/01/03 11:00:36;;;;;;;0.70;0.70;;;;;;;13.05;50.25;99368.00;5338305;26;34368;-88
2022/01/03 11:03:25;;;;;;;0.93;0.90;;;;;;;12.93;50.40;99376.19;5338475;26;33558;-88
2022/01/03 11:05:59;;;;;;;2.50;1.20;;;;;;;13.07;50.21;99367.94;5337572;26;33538;-89
2022/01/03 11:11:16;;;;;;;4.78;1.08;;;;;;;13.32;49.17;99352.50;5338433;26;33936;-89
2022/01/03 11:13:48;;;;;;;1.80;1.15;;;;;;;13.57;48.91;99345.63;5324571;26;35766;-89
2022/01/03 11:16:17;;;;;;;1.58;1.10;;;;;;;13.50;48.99;99346.72;5321142;26;31247;-91
2022/01/03 11:18:47;;;;;;;2.00;1.10;;;;;;;13.15;50.13;99338.19;5338526;26;33548;-89
2022/01/03 11:21:19;;;;;;;0.80;0.80;;;;;;;13.28;50.64;99340.47;5318254;26;34486;-88
2022/01/03 11:23:49;;;;;;;1.65;0.90;;;;;;;13.36;50.15;99351.50;5338821;26;34175;-88
2022/01/03 11:26:19;;;;;;;2.50;1.40;;;;;;;13.40;50.09;99350.53;5344895;26;33419;-90
2022/01/03 11:28:49;;;;;;;1.45;1.10;;;;;;;13.47;49.39;99361.63;5318691;26;34132;-88
2022/01/03 11:31:19;;;;;;;1.60;0.88;;;;;;;13.48;49.21;99364.16;5317614;26;34730;-88
2022/01/03 11:33:49;;;;;;;1.17;0.90;;;;;;;13.59;48.86;99356.88;5338166;26;34009;-89
2022/01/03 11:36:40;;;;;;;1.70;1.02;;;;;;;13.97;48.16;99356.59;5336504;26;34090;-89
2022/01/03 11:39:11;;;;;;;2.17;1.50;;;;;;;13.87;47.61;99345.59;5338030;26;33814;-88
2022/01/03 11:41:42;;;;;;;1.50;1.40;;;;;;;13.97;47.88;99348.75;5343770;26;33407;-88
2022/01/03 11:44:15;;;;;;;1.27;0.90;;;;;;;13.95;47.54;99343.59;5323223;26;35108;-88
2022/01/03 11:46:45;;;;;;;0.70;0.70;;;;;;;13.59;48.07;99335.19;5337650;26;34721;-91
2022/01/03 11:49:14;;;;;;;0.77;0.73;;;;;;;13.66;47.90;99342.75;5340084;26;35622;-88
2022/01/03 11:51:44;;;;;;;0.70;0.70;;;;;;;13.45;47.84;99346.88;5339796;26;34719;-88
2022/01/03 11:54:14;;;;;;;0.77;0.77;;;;;;;13.49;47.68;99352.84;5338572;26;34097;-88
2022/01/03 11:56:47;;;;;;;0.70;0.70;;;;;;;13.40;47.82;99350.53;5325065;26;33150;-89
2022/01/03 12:03:36;;;;;;;1.42;1.08;;;;;;;13.58;47.27;99355.19;5338220;26;33964;-89
2022/01/03 12:05:15;;;;;;;1.05;0.95;;;;;;;13.60;46.82;99374.25;5337572;26;33963;-89
2022/01/03 12:07:58;;;;;;;0.93;0.85;;;;;;;13.55;46.67;99370.03;5337284;26;33204;-88